Time;durP1;ratioP1;P1;durP2;ratioP2;P2;SDS_P1;SDS_P2;PMS_P1;PMS_P2;Temp;Humidity;BMP_temperature;BMP_pressure;BME280_temperature;BME280_humidity;BME280_pressure;Samples;Min_cycle;Max_cycle;Signal;HPM_P1;HPM_P2
2022/06/07 00:03:33;;;;;;;;;;;;;;;15.58;100.00;97677.66;10298908;28;20033;-62
2022/06/07 00:08:31;;;;;;;;;;;;;;;15.54;100.00;97679.47;10298449;28;19956;-62
2022/06/07 00:13:30;;;;;;;;;;;;;;;15.56;100.00;97682.06;10296059;28;19909;-62
2022/06/07 00:18:29;;;;;;;;;;;;;;;15.57;100.00;97678.53;10294847;28;19918;-62
2022/06/07 00:23:28;;;;;;;;;;;;;;;15.54;100.00;97678.63;10294286;28;19909;-62
2022/06/07 00:28:28;;;;;;;;;;;;;;;15.36;100.00;97669.41;10293761;28;19960;-62
2022/06/07 00:33:27;;;;;;;;;;;;;;;15.39;100.00;97666.75;10294142;28;19948;-62
2022/06/07 00:38:25;;;;;;;;;;;;;;;15.41;100.00;97652.75;10294190;28;20007;-62
2022/06/07 00:43:24;;;;;;;;;;;;;;;15.38;100.00;97658.00;10293401;28;19901;-62
2022/06/07 00:48:23;;;;;;;;;;;;;;;15.16;100.00;97662.84;10294096;28;19923;-62
2022/06/07 00:53:24;;;;;;;;;;;;;;;14.91;100.00;97662.47;10293328;28;20269;-62
2022/06/07 00:58:25;;;;;;;;;;;;;;;14.77;100.00;97654.91;10293465;28;19948;-62
2022/06/07 01:03:24;;;;;;;;;;;;;;;14.51;100.00;97673.66;10293724;28;19960;-62
2022/06/07 01:13:40;;;;;;;;;;;;;;;14.27;100.00;97677.56;10293589;28;20395;-62
2022/06/07 01:18:39;;;;;;;;;;;;;;;14.29;100.00;97667.97;10293042;28;20364;-62
2022/06/07 01:23:39;;;;;;;;;;;;;;;14.36;100.00;97680.03;10293218;28;19971;-62
2022/06/07 01:28:39;;;;;;;;;;;;;;;14.47;100.00;97668.50;10291021;28;19952;-62
2022/06/07 01:33:37;;;;;;;;;;;;;;;14.63;100.00;97656.91;10292800;28;19948;-62
2022/06/07 01:38:37;;;;;;;;;;;;;;;14.79;100.00;97647.91;10293171;28;19932;-62
2022/06/07 01:43:35;;;;;;;;;;;;;;;14.90;100.00;97641.63;10292250;28;19944;-62
2022/06/07 01:48:34;;;;;;;;;;;;;;;14.95;100.00;97655.47;10292569;28;19968;-62
2022/06/07 01:53:34;;;;;;;;;;;;;;;14.90;100.00;97644.25;10292880;28;20012;-62
2022/06/07 01:58:33;;;;;;;;;;;;;;;14.82;100.00;97652.22;10292414;28;20799;-62
2022/06/07 02:03:32;;;;;;;;;;;;;;;14.72;100.00;97653.28;10295784;28;19951;-62
2022/06/07 02:08:32;;;;;;;;;;;;;;;14.69;100.00;97646.34;10299802;28;19960;-62
2022/06/07 02:13:31;;;;;;;;;;;;;;;14.71;100.00;97652.44;10301972;28;19952;-62
2022/06/07 02:18:30;;;;;;;;;;;;;;;14.72;100.00;97658.53;10302512;28;19968;-62
2022/06/07 02:23:29;;;;;;;;;;;;;;;14.79;100.00;97662.72;10302590;28;19916;-62
2022/06/07 02:28:31;;;;;;;;;;;;;;;14.82;100.00;97655.69;10303119;28;19956;-62
2022/06/07 02:33:31;;;;;;;;;;;;;;;14.95;100.00;97664.16;10301917;28;19944;-62
2022/06/07 02:38:30;;;;;;;;;;;;;;;15.01;100.00;97668.38;10302352;28;19916;-62
2022/06/07 02:43:29;;;;;;;;;;;;;;;15.11;100.00;97675.16;10301579;28;19917;-62
2022/06/07 02:48:28;;;;;;;;;;;;;;;15.23;100.00;97669.69;10301199;28;20357;-62
2022/06/07 02:53:27;;;;;;;;;;;;;;;15.23;100.00;97677.50;10301628;28;19957;-62
2022/06/07 02:58:27;;;;;;;;;;;;;;;15.27;100.00;97667.00;10300847;28;19913;-62
2022/06/07 03:03:26;;;;;;;;;;;;;;;15.25;100.00;97680.97;10301150;28;20360;-62
2022/06/07 03:08:26;;;;;;;;;;;;;;;15.21;100.00;97681.91;10301077;28;19955;-62
2022/06/07 03:13:25;;;;;;;;;;;;;;;15.15;100.00;97689.00;10297144;28;19959;-62
2022/06/07 03:18:24;;;;;;;;;;;;;;;15.15;100.00;97682.03;10295849;28;19926;-62
2022/06/07 03:23:23;;;;;;;;;;;;;;;15.21;100.00;97687.13;10297188;28;20372;-62
2022/06/07 03:28:21;;;;;;;;;;;;;;;15.37;100.00;97679.84;10296837;28;20681;-62
2022/06/07 03:33:20;;;;;;;;;;;;;;;15.52;100.00;97681.25;10295477;28;19975;-62
2022/06/07 03:38:19;;;;;;;;;;;;;;;15.64;100.00;97685.34;10295619;28;19949;-62
2022/06/07 03:43:17;;;;;;;;;;;;;;;15.70;100.00;97687.84;10296275;28;20376;-62
2022/06/07 03:48:16;;;;;;;;;;;;;;;15.72;100.00;97685.19;10295553;28;19913;-62
2022/06/07 03:53:15;;;;;;;;;;;;;;;15.75;100.00;97682.50;10293512;28;19920;-62
2022/06/07 03:58:14;;;;;;;;;;;;;;;15.92;100.00;97682.13;10294662;28;19920;-62
2022/06/07 04:03:13;;;;;;;;;;;;;;;16.07;100.00;97681.78;10295503;28;19959;-62
2022/06/07 04:08:12;;;;;;;;;;;;;;;16.22;100.00;97673.53;10295312;28;19979;-62
2022/06/07 04:13:12;;;;;;;;;;;;;;;16.36;100.00;97683.66;10293808;28;19967;-62
2022/06/07 04:18:11;;;;;;;;;;;;;;;16.44;100.00;97684.34;10294367;28;19983;-62
2022/06/07 04:23:18;;;;;;;;;;;;;;;16.13;100.00;97694.72;10295272;28;19948;-62
2022/06/07 04:28:17;;;;;;;;;;;;;;;15.87;100.00;97693.56;10292992;28;19952;-62
2022/06/07 04:33:17;;;;;;;;;;;;;;;15.92;100.00;97690.00;10293126;28;19957;-62
2022/06/07 04:38:16;;;;;;;;;;;;;;;16.24;100.00;97684.84;10294111;28;19960;-62
2022/06/07 04:43:15;;;;;;;;;;;;;;;16.78;100.00;97683.44;10293770;28;19921;-62
2022/06/07 04:48:13;;;;;;;;;;;;;;;17.20;98.85;97693.69;10293241;28;19963;-62
2022/06/07 04:53:12;;;;;;;;;;;;;;;17.35;95.50;97689.75;10292486;28;19914;-62
2022/06/07 04:58:11;;;;;;;;;;;;;;;17.40;94.74;97686.97;10292288;28;20366;-62
2022/06/07 05:03:10;;;;;;;;;;;;;;;17.45;93.39;97685.06;10292714;28;20664;-62
2022/06/07 05:08:09;;;;;;;;;;;;;;;17.42;92.24;97687.81;10291455;28;19993;-62
2022/06/07 05:13:07;;;;;;;;;;;;;;;17.24;92.98;97708.44;10292975;28;20711;-62
2022/06/07 05:18:07;;;;;;;;;;;;;;;17.12;93.83;97700.88;10291262;28;19960;-62
2022/06/07 05:23:06;;;;;;;;;;;;;;;17.14;93.56;97702.59;10291393;28;20645;-62
2022/06/07 05:28:05;;;;;;;;;;;;;;;17.18;93.23;97715.59;10292448;28;19956;-62
2022/06/07 05:33:04;;;;;;;;;;;;;;;17.24;93.45;97703.19;10292276;28;19913;-62
2022/06/07 05:38:03;;;;;;;;;;;;;;;17.55;92.95;97704.91;10295413;28;19909;-62
2022/06/07 05:43:01;;;;;;;;;;;;;;;17.87;91.97;97693.47;10300466;28;19946;-62
2022/06/07 05:48:00;;;;;;;;;;;;;;;18.25;90.17;97694.00;10299479;28;19914;-62
2022/06/07 05:52:59;;;;;;;;;;;;;;;18.70;89.19;97696.00;10299343;28;20438;-62
2022/06/07 05:57:58;;;;;;;;;;;;;;;18.74;87.10;97694.16;10300125;28;20365;-62
2022/06/07 06:02:56;;;;;;;;;;;;;;;18.83;85.96;97701.72;10299741;28;19909;-62
2022/06/07 06:13:32;;;;;;;;;;;;;;;19.47;84.90;97695.88;10291597;28;19953;-62
2022/06/07 06:18:31;;;;;;;;;;;;;;;19.84;83.99;97692.72;10255379;28;19945;-62
2022/06/07 06:23:30;;;;;;;;;;;;;;;20.00;82.30;97695.59;10261529;28;20036;-62
2022/06/07 06:28:29;;;;;;;;;;;;;;;20.18;81.18;97696.63;10313343;28;19948;-62
2022/06/07 06:33:27;;;;;;;;;;;;;;;20.28;80.61;97690.06;10297907;28;19961;-62
2022/06/07 06:38:26;;;;;;;;;;;;;;;20.36;79.55;97689.75;10297262;28;19913;-62
2022/06/07 06:43:25;;;;;;;;;;;;;;;20.29;79.31;97686.50;10298276;28;19909;-62
2022/06/07 06:48:24;;;;;;;;;;;;;;;20.22;78.05;97682.41;10296851;28;20002;-62
2022/06/07 06:53:22;;;;;;;;;;;;;;;19.72;79.81;97682.66;10296248;28;19953;-62
2022/06/07 06:58:21;;;;;;;;;;;;;;;19.54;81.64;97678.94;10297935;28;19910;-62
2022/06/07 07:03:22;;;;;;;;;;;;;;;19.77;81.75;97679.84;10286679;28;19917;-62
2022/06/07 07:08:20;;;;;;;;;;;;;;;20.10;80.21;97676.78;10295337;28;19952;-63
2022/06/07 07:13:19;;;;;;;;;;;;;;;20.18;79.43;97669.41;10299302;28;19927;-63
2022/06/07 07:18:18;;;;;;;;;;;;;;;20.44;77.56;97673.63;10298824;28;19918;-63
2022/06/07 07:23:16;;;;;;;;;;;;;;;20.63;77.39;97671.94;10299493;28;20383;-63
2022/06/07 07:28:16;;;;;;;;;;;;;;;20.84;72.96;97674.56;10287382;28;20364;-63
2022/06/07 07:33:14;;;;;;;;;;;;;;;21.00;72.84;97664.19;10294581;28;19968;-63
2022/06/07 07:38:13;;;;;;;;;;;;;;;21.24;71.07;97668.41;10296740;28;19913;-63
2022/06/07 07:43:12;;;;;;;;;;;;;;;21.24;67.81;97662.25;10294600;28;19913;-63
2022/06/07 07:48:11;;;;;;;;;;;;;;;21.30;69.86;97657.56;10296902;28;19956;-63
2022/06/07 07:53:11;;;;;;;;;;;;;;;21.57;69.07;97664.25;10294900;28;19972;-63
2022/06/07 07:58:11;;;;;;;;;;;;;;;21.75;68.80;97652.84;10288378;28;19960;-63
2022/06/07 08:03:10;;;;;;;;;;;;;;;22.14;68.23;97643.94;10287756;28;19968;-63
2022/06/07 08:08:09;;;;;;;;;;;;;;;22.29;66.36;97640.53;10312600;28;19945;-64
2022/06/07 08:13:08;;;;;;;;;;;;;;;22.44;63.54;97630.97;10299253;28;20377;-64
2022/06/07 08:18:07;;;;;;;;;;;;;;;22.51;62.62;97620.94;10294012;28;20447;-62
2022/06/07 08:23:07;;;;;;;;;;;;;;;22.04;64.29;97626.81;10293899;28;19910;-61
2022/06/07 08:28:06;;;;;;;;;;;;;;;22.00;63.69;97622.63;10298439;28;19952;-62
2022/06/07 08:38:22;;;;;;;;;;;;;;;22.37;58.38;97606.63;10289969;28;20379;-64
2022/06/07 08:43:23;;;;;;;;;;;;;;;22.36;53.74;97596.97;10293011;28;20364;-64
2022/06/07 08:48:26;;;;;;;;;;;;;;;22.53;52.68;97588.19;10289614;28;20024;-64
2022/06/07 08:53:28;;;;;;;;;;;;;;;22.71;52.71;97585.50;10290764;28;20427;-64
2022/06/07 08:58:34;;;;;;;;;;;;;;;22.87;52.00;97577.66;10292246;28;19944;-64
2022/06/07 09:03:47;;;;;;;;;;;;;;;22.54;54.78;97583.75;10307834;28;20388;-64
2022/06/07 09:08:48;;;;;;;;;;;;;;;22.83;53.94;97581.38;10287332;28;20083;-64
2022/06/07 09:13:46;;;;;;;;;;;;;;;23.02;48.40;97571.50;10275495;28;20020;-64
2022/06/07 09:18:45;;;;;;;;;;;;;;;23.19;47.10;97566.16;10288627;28;19921;-64
2022/06/07 09:23:46;;;;;;;;;;;;;;;23.12;43.86;97572.75;10290476;28;20290;-64
2022/06/07 09:28:47;;;;;;;;;;;;;;;23.39;44.35;97561.56;10288455;28;21615;-64
2022/06/07 09:33:53;;;;;;;;;;;;;;;23.64;44.61;97555.75;10283882;28;19960;-62
2022/06/07 09:38:56;;;;;;;;;;;;;;;23.77;42.09;97550.59;10288991;28;19971;-62
2022/06/07 09:44:00;;;;;;;;;;;;;;;24.03;44.18;97542.00;10289036;28;19967;-62
2022/06/07 09:48:59;;;;;;;;;;;;;;;24.23;44.74;97537.34;10291602;28;19956;-64
2022/06/07 09:53:59;;;;;;;;;;;;;;;23.86;43.98;97536.81;10291182;28;19909;-64
2022/06/07 09:59:12;;;;;;;;;;;;;;;23.88;43.83;97534.94;10285527;28;19945;-64
2022/06/07 10:04:13;;;;;;;;;;;;;;;23.95;43.01;97532.78;10289304;28;19944;-64
2022/06/07 10:09:21;;;;;;;;;;;;;;;23.76;43.38;97533.00;10288413;28;19964;-64
2022/06/07 10:14:23;;;;;;;;;;;;;;;23.77;43.14;97529.41;10292423;28;19948;-64
2022/06/07 10:19:32;;;;;;;;;;;;;;;23.83;41.73;97515.81;10290018;28;20432;-64
2022/06/07 10:24:53;;;;;;;;;;;;;;;23.87;41.56;97522.63;10290487;28;19952;-64
2022/06/07 10:30:04;;;;;;;;;;;;;;;24.22;41.14;97509.13;10297912;28;20349;-64
2022/06/07 10:35:08;;;;;;;;;;;;;;;24.63;40.67;97505.72;10298389;28;20368;-64
2022/06/07 10:40:08;;;;;;;;;;;;;;;24.63;39.43;97503.06;10299722;28;21515;-64
2022/06/07 10:45:14;;;;;;;;;;;;;;;24.77;39.36;97500.41;10297640;28;20364;-64
2022/06/07 10:50:18;;;;;;;;;;;;;;;24.77;37.85;97483.66;10300022;28;19957;-64
2022/06/07 10:55:22;;;;;;;;;;;;;;;24.66;38.61;97481.66;10315710;28;19949;-64
2022/06/07 11:00:36;;;;;;;;;;;;;;;24.56;40.31;97485.84;10299058;28;19959;-64
2022/06/07 11:10:55;;;;;;;;;;;;;;;24.63;41.00;97468.59;10299112;28;20415;-64
2022/06/07 11:16:00;;;;;;;;;;;;;;;24.92;42.38;97466.78;10295340;28;21128;-64
2022/06/07 11:21:02;;;;;;;;;;;;;;;25.23;39.60;97459.50;10294604;28;19957;-64
2022/06/07 11:26:08;;;;;;;;;;;;;;;24.92;39.65;97450.00;10293361;28;19948;-64
2022/06/07 11:31:22;;;;;;;;;;;;;;;24.97;40.98;97442.59;10293443;28;19953;-64
2022/06/07 11:36:24;;;;;;;;;;;;;;;24.64;39.84;97452.59;10289453;28;19968;-64
2022/06/07 11:41:38;;;;;;;;;;;;;;;24.81;40.44;97443.53;10288370;28;19953;-64
2022/06/07 11:46:45;;;;;;;;;;;;;;;25.00;39.93;97445.06;10290104;28;20389;-64
2022/06/07 11:51:54;;;;;;;;;;;;;;;25.33;39.62;97439.34;10284023;28;20399;-64
2022/06/07 11:56:55;;;;;;;;;;;;;;;25.37;37.94;97432.03;10291888;28;19952;-64
2022/06/07 12:01:54;;;;;;;;;;;;;;;25.40;38.64;97437.97;10291559;28;19947;-64
2022/06/07 12:06:56;;;;;;;;;;;;;;;25.42;36.97;97424.59;10295951;28;19915;-64
2022/06/07 12:11:55;;;;;;;;;;;;;;;25.52;36.83;97426.53;10291239;28;20051;-64
2022/06/07 12:17:01;;;;;;;;;;;;;;;25.96;37.96;97416.53;10286858;28;19923;-64
2022/06/07 12:22:06;;;;;;;;;;;;;;;25.97;36.46;97412.91;10287585;28;19972;-64
2022/06/07 12:27:31;;;;;;;;;;;;;;;25.91;36.34;97405.38;10290249;28;19956;-61
2022/06/07 12:32:32;;;;;;;;;;;;;;;25.92;37.23;97407.06;10286194;28;19960;-62
2022/06/07 12:37:31;;;;;;;;;;;;;;;26.09;37.26;97401.44;10283428;28;19960;-62
2022/06/07 12:42:32;;;;;;;;;;;;;;;25.83;36.18;97402.38;10290758;28;19940;-65
2022/06/07 12:47:31;;;;;;;;;;;;;;;25.84;36.83;97391.66;10281635;28;20044;-64
2022/06/07 12:52:31;;;;;;;;;;;;;;;25.92;36.55;97393.78;10281911;28;20037;-62
2022/06/07 12:57:37;;;;;;;;;;;;;;;25.62;38.16;97397.59;10290737;28;19949;-63
2022/06/07 13:02:54;;;;;;;;;;;;;;;25.46;38.72;97386.28;10288600;28;19995;-62
2022/06/07 13:07:55;;;;;;;;;;;;;;;25.56;38.90;97381.22;10288970;28;19965;-62
2022/06/07 13:12:55;;;;;;;;;;;;;;;25.58;37.89;97384.63;10292664;28;19952;-62
2022/06/07 13:18:17;;;;;;;;;;;;;;;25.85;38.22;97380.03;10285296;28;19957;-63
2022/06/07 13:23:26;;;;;;;;;;;;;;;25.83;38.00;97381.13;10287394;28;19952;-62
2022/06/07 13:28:26;;;;;;;;;;;;;;;25.73;38.43;97376.44;10276486;28;20396;-62
2022/06/07 13:33:27;;;;;;;;;;;;;;;25.83;38.41;97382.00;10290916;28;19953;-62
2022/06/07 13:38:41;;;;;;;;;;;;;;;25.67;38.33;97374.22;10289703;28;19945;-62
2022/06/07 13:43:58;;;;;;;;;;;;;;;25.96;38.20;97376.66;10292009;28;19952;-63
2022/06/07 13:54:20;;;;;;;;;;;;;;;25.94;37.63;97363.47;10294213;28;19960;-63
2022/06/07 13:59:19;;;;;;;;;;;;;;;25.70;36.87;97358.03;10298504;28;19970;-63
2022/06/07 14:04:31;;;;;;;;;;;;;;;25.61;36.73;97353.34;10301975;28;19909;-63
2022/06/07 14:09:30;;;;;;;;;;;;;;;25.67;36.02;97342.31;10301141;28;19955;-63
2022/06/07 14:14:29;;;;;;;;;;;;;;;25.64;37.47;97337.19;10299376;28;20102;-63
2022/06/07 14:19:30;;;;;;;;;;;;;;;25.36;37.42;97332.88;10296940;28;20500;-63
2022/06/07 14:24:29;;;;;;;;;;;;;;;25.25;39.42;97328.31;10297651;28;20412;-63
2022/06/07 14:29:28;;;;;;;;;;;;;;;25.19;38.13;97320.75;10297857;28;20407;-63
2022/06/07 14:34:28;;;;;;;;;;;;;;;25.22;37.60;97331.19;10296599;28;20463;-63
2022/06/07 14:39:28;;;;;;;;;;;;;;;25.22;37.74;97323.22;10291497;28;19957;-63
2022/06/07 14:44:26;;;;;;;;;;;;;;;25.35;37.53;97314.41;10297081;28;20383;-63
2022/06/07 14:49:36;;;;;;;;;;;;;;;25.42;37.40;97305.06;10293366;28;19946;-63
2022/06/07 14:54:36;;;;;;;;;;;;;;;25.51;36.87;97301.78;10297152;28;19987;-62
2022/06/07 14:59:35;;;;;;;;;;;;;;;25.35;37.46;97299.31;10292719;28;20373;-63
2022/06/07 15:04:39;;;;;;;;;;;;;;;25.18;38.31;97295.16;10289124;28;20407;-63
2022/06/07 15:09:38;;;;;;;;;;;;;;;25.14;39.44;97295.47;10290005;28;19941;-63
2022/06/07 15:14:36;;;;;;;;;;;;;;;25.15;37.87;97290.03;10291370;28;19948;-63
2022/06/07 15:19:36;;;;;;;;;;;;;;;25.00;37.83;97289.28;10293537;28;19956;-63
2022/06/07 15:24:34;;;;;;;;;;;;;;;25.00;36.99;97285.78;10292638;28;19964;-63
2022/06/07 15:34:57;;;;;;;;;;;;;;;24.73;38.29;97278.69;10293348;28;19967;-65
2022/06/07 15:39:57;;;;;;;;;;;;;;;24.48;38.18;97277.63;10292089;28;19972;-63
2022/06/07 15:44:55;;;;;;;;;;;;;;;24.34;39.12;97277.66;10292054;28;19948;-63
2022/06/07 15:49:55;;;;;;;;;;;;;;;24.25;40.06;97286.19;10292422;28;19952;-63
2022/06/07 15:54:54;;;;;;;;;;;;;;;24.23;39.65;97283.63;10292784;28;19945;-62
2022/06/07 15:59:52;;;;;;;;;;;;;;;24.26;40.37;97282.59;10292169;28;19955;-62
2022/06/07 16:04:51;;;;;;;;;;;;;;;24.17;41.01;97278.72;10291892;28;20003;-63
2022/06/07 16:09:50;;;;;;;;;;;;;;;24.15;40.92;97274.47;10290609;28;19913;-63
2022/06/07 16:14:49;;;;;;;;;;;;;;;24.01;41.71;97277.97;10295391;28;19960;-63
2022/06/07 16:19:48;;;;;;;;;;;;;;;24.01;41.45;97284.13;10293279;28;19956;-63
2022/06/07 16:24:46;;;;;;;;;;;;;;;23.92;41.04;97278.56;10294479;28;19944;-62
2022/06/07 16:35:03;;;;;;;;;;;;;;;23.66;42.18;97291.63;10292857;28;19972;-63
2022/06/07 16:40:03;;;;;;;;;;;;;;;23.62;42.09;97290.94;10289791;28;20012;-62
2022/06/07 16:45:03;;;;;;;;;;;;;;;23.62;42.53;97293.59;10293005;28;20004;-62
2022/06/07 16:50:03;;;;;;;;;;;;;;;23.66;42.89;97298.72;10294581;28;20317;-62
2022/06/07 16:55:01;;;;;;;;;;;;;;;23.55;42.15;97297.56;10293443;28;19948;-62
2022/06/07 17:00:00;;;;;;;;;;;;;;;23.44;43.33;97305.25;10292727;28;19913;-62
2022/06/07 17:04:59;;;;;;;;;;;;;;;23.42;43.14;97296.59;10293960;28;19909;-63
2022/06/07 17:09:59;;;;;;;;;;;;;;;23.42;43.57;97301.88;10293190;28;19906;-63
2022/06/07 17:14:58;;;;;;;;;;;;;;;23.35;44.04;97305.81;10289674;28;19956;-63
2022/06/07 17:19:57;;;;;;;;;;;;;;;23.13;44.12;97311.53;10288233;28;20380;-63
2022/06/07 17:24:56;;;;;;;;;;;;;;;22.88;45.00;97310.34;10289563;28;19969;-63
2022/06/07 17:29:55;;;;;;;;;;;;;;;22.68;45.86;97306.16;10289229;28;19995;-63
2022/06/07 17:34:55;;;;;;;;;;;;;;;22.39;46.13;97316.59;10296013;28;20619;-63
2022/06/07 17:39:54;;;;;;;;;;;;;;;22.21;47.41;97311.47;10297276;28;19948;-63
2022/06/07 17:44:53;;;;;;;;;;;;;;;21.88;47.23;97314.97;10294632;28;20011;-63
2022/06/07 17:49:56;;;;;;;;;;;;;;;21.68;47.92;97318.66;10296993;28;20360;-63
2022/06/07 17:54:55;;;;;;;;;;;;;;;21.64;48.46;97317.13;10296784;28;19987;-63
2022/06/07 17:59:57;;;;;;;;;;;;;;;21.51;48.84;97317.75;10297219;28;20312;-63
2022/06/07 18:04:56;;;;;;;;;;;;;;;21.43;49.25;97317.31;10297114;28;19979;-64
2022/06/07 18:09:57;;;;;;;;;;;;;;;21.30;49.71;97324.16;10295867;28;20357;-63
2022/06/07 18:14:56;;;;;;;;;;;;;;;21.14;51.02;97329.31;10290201;28;20015;-64
2022/06/07 18:19:55;;;;;;;;;;;;;;;20.74;54.10;97299.66;10292354;28;20031;-64
2022/06/07 18:24:55;;;;;;;;;;;;;;;20.81;56.40;97345.03;10294547;28;19914;-64
2022/06/07 18:29:53;;;;;;;;;;;;;;;20.58;57.64;97347.00;10293811;28;19961;-63
2022/06/07 18:34:54;;;;;;;;;;;;;;;20.37;58.50;97348.84;10295811;28;19927;-64
2022/06/07 18:39:53;;;;;;;;;;;;;;;20.17;59.60;97352.41;10296706;28;19968;-64
2022/06/07 18:44:53;;;;;;;;;;;;;;;19.91;60.11;97356.25;10294362;28;20005;-64
2022/06/07 18:49:52;;;;;;;;;;;;;;;19.68;61.44;97365.16;10294476;28;20380;-63
2022/06/07 18:54:51;;;;;;;;;;;;;;;19.42;62.75;97366.25;10295266;28;20399;-63
2022/06/07 18:59:50;;;;;;;;;;;;;;;19.31;63.40;97369.34;10294594;28;20315;-63
2022/06/07 19:04:49;;;;;;;;;;;;;;;19.18;64.48;97376.00;10294441;28;19948;-63
2022/06/07 19:09:52;;;;;;;;;;;;;;;19.00;65.51;97365.34;10292839;28;19924;-63
2022/06/07 19:14:51;;;;;;;;;;;;;;;18.76;66.80;97371.59;10297584;28;19959;-63
2022/06/07 19:19:50;;;;;;;;;;;;;;;18.53;68.29;97383.00;10296522;28;19971;-63
2022/06/07 19:24:49;;;;;;;;;;;;;;;18.47;68.18;97381.44;10298088;28;19913;-63
2022/06/07 19:29:47;;;;;;;;;;;;;;;18.28;69.82;97380.44;10295724;28;19909;-63
2022/06/07 19:34:46;;;;;;;;;;;;;;;18.02;71.23;97390.16;10293191;28;19921;-63
2022/06/07 19:39:45;;;;;;;;;;;;;;;17.89;71.40;97392.34;10297259;28;20476;-63
2022/06/07 19:44:44;;;;;;;;;;;;;;;17.84;71.68;97393.44;10295309;28;19913;-63
2022/06/07 19:49:43;;;;;;;;;;;;;;;17.76;71.50;97386.72;10295951;28;19948;-63
2022/06/07 19:54:42;;;;;;;;;;;;;;;17.65;72.21;97394.06;10296290;28;19952;-63
2022/06/07 19:59:41;;;;;;;;;;;;;;;17.51;72.48;97386.69;10294972;28;19957;-63
2022/06/07 20:04:39;;;;;;;;;;;;;;;17.43;73.00;97385.25;10290543;28;19913;-63
2022/06/07 20:09:38;;;;;;;;;;;;;;;17.35;73.47;97381.13;10295020;28;19936;-63
2022/06/07 20:14:37;;;;;;;;;;;;;;;17.33;73.49;97388.19;10292461;28;20007;-63
2022/06/07 20:19:36;;;;;;;;;;;;;;;17.23;73.66;97381.50;10291286;28;20476;-63
2022/06/07 20:24:38;;;;;;;;;;;;;;;17.12;73.69;97376.66;10290517;28;20305;-64
2022/06/07 20:29:37;;;;;;;;;;;;;;;16.96;73.95;97382.44;10291214;28;19957;-63
2022/06/07 20:34:36;;;;;;;;;;;;;;;16.88;73.91;97391.38;10282046;28;19925;-63
2022/06/07 20:39:39;;;;;;;;;;;;;;;16.81;73.74;97384.63;10285597;28;19936;-64
2022/06/07 20:44:38;;;;;;;;;;;;;;;16.69;73.96;97383.22;10286200;28;20306;-64
2022/06/07 20:49:38;;;;;;;;;;;;;;;16.64;74.01;97384.28;10290706;28;19959;-63
2022/06/07 20:54:37;;;;;;;;;;;;;;;16.51;74.52;97382.06;10291604;28;19952;-64
2022/06/07 20:59:37;;;;;;;;;;;;;;;16.42;75.15;97387.56;10291493;28;19953;-64
2022/06/07 21:04:37;;;;;;;;;;;;;;;16.37;76.07;97383.38;10291240;28;19959;-63
2022/06/07 21:09:36;;;;;;;;;;;;;;;16.30;76.56;97382.69;10290806;28;19952;-63
2022/06/07 21:14:35;;;;;;;;;;;;;;;16.26;77.91;97375.84;10290369;28;19913;-63
2022/06/07 21:19:33;;;;;;;;;;;;;;;16.11;78.37;97392.00;10322479;28;20420;-63
2022/06/07 21:24:32;;;;;;;;;;;;;;;16.08;78.71;97388.56;10290407;28;20392;-63
2022/06/07 21:29:31;;;;;;;;;;;;;;;16.03;78.97;97381.75;10290078;28;19913;-63
2022/06/07 21:34:29;;;;;;;;;;;;;;;15.98;79.54;97375.81;10290426;28;20020;-63
2022/06/07 21:39:29;;;;;;;;;;;;;;;15.95;79.50;97365.41;10290817;28;20015;-63
2022/06/07 21:44:27;;;;;;;;;;;;;;;15.84;80.47;97361.34;10305267;28;20474;-63
2022/06/07 21:49:26;;;;;;;;;;;;;;;15.73;80.65;97360.75;10290626;28;19964;-63
2022/06/07 21:54:25;;;;;;;;;;;;;;;15.59;81.10;97366.34;10290422;28;19917;-63
2022/06/07 21:59:24;;;;;;;;;;;;;;;15.45;83.25;97371.09;10290215;28;19996;-63
2022/06/07 22:04:22;;;;;;;;;;;;;;;15.25;84.39;97372.50;10285314;28;20455;-63
2022/06/07 22:09:21;;;;;;;;;;;;;;;15.12;85.06;97363.25;10291508;28;20359;-63
2022/06/07 22:14:20;;;;;;;;;;;;;;;15.01;85.74;97368.75;10293426;28;19957;-63
2022/06/07 22:19:19;;;;;;;;;;;;;;;14.94;86.30;97371.53;10295689;28;19917;-63
2022/06/07 22:24:18;;;;;;;;;;;;;;;14.80;87.36;97372.75;10290533;28;20459;-63
2022/06/07 22:34:34;;;;;;;;;;;;;;;14.66;87.50;97356.50;10298105;28;19952;-63
2022/06/07 22:39:34;;;;;;;;;;;;;;;14.68;87.09;97352.09;10299934;28;19948;-63
2022/06/07 22:44:33;;;;;;;;;;;;;;;14.72;86.70;97342.47;10299164;28;19963;-63
2022/06/07 22:49:32;;;;;;;;;;;;;;;14.74;86.65;97340.69;10299646;28;19944;-64
2022/06/07 22:54:36;;;;;;;;;;;;;;;14.75;86.22;97340.63;10299196;28;19956;-63
2022/06/07 22:59:38;;;;;;;;;;;;;;;14.75;86.65;97338.03;10299203;28;20381;-63
2022/06/07 23:04:44;;;;;;;;;;;;;;;14.74;86.96;97338.94;10295591;28;19949;-63
2022/06/07 23:09:43;;;;;;;;;;;;;;;14.62;86.84;97333.97;10298341;28;19957;-63
2022/06/07 23:20:00;;;;;;;;;;;;;;;14.50;87.73;97329.03;10287262;28;19963;-63
2022/06/07 23:24:59;;;;;;;;;;;;;;;14.25;88.73;97327.00;10308104;28;19948;-63
2022/06/07 23:29:58;;;;;;;;;;;;;;;13.89;89.60;97326.91;10293093;28;19936;-63
2022/06/07 23:34:57;;;;;;;;;;;;;;;13.72;89.86;97318.56;10290781;28;19920;-63
2022/06/07 23:39:55;;;;;;;;;;;;;;;13.61;90.43;97312.72;10291229;28;19949;-63
2022/06/07 23:44:54;;;;;;;;;;;;;;;13.60;91.04;97316.22;10293710;28;19909;-63
2022/06/07 23:50:00;;;;;;;;;;;;;;;13.51;91.28;97310.25;10294375;28;19924;-63
2022/06/07 23:55:00;;;;;;;;;;;;;;;13.46;91.75;97306.03;10260874;28;19956;-64
